Accueil
METAR-TAF:

METAR-TAF

Aéroports :

Stuttgart, Allemagne

Aéroport de Stuttgart

latitude: 48-41N, longitude: 009-13E, altitude: 396 m

Observation

Le bulletin a été fait il y a 27 minutes, à 21:20 UTC
Vent 3 kt de nord-ouest
Température 3°C
Humidité 65%
Pression 1023 hPa
Visibilité 10 km ou plus
pas de nuages en-dessous de 1500 mètres et pas de cumulonimbus.

METAR: EDDS 232120Z 31003KT CAVOK 03/M03 Q1023

Heure: 23:47 (21:47 UTC)

Prévision

Le bulletin a été fait il y a 4 heures et 47 minutes, à 17:00 UTC
Prévision valable du 23 à 18 UTC au 24 à 18 UTC
Vent 6 kt de nord
Visibilité 10 km ou plus
pas de nuages en-dessous de 1500 mètres et pas de cumulonimbus.
Evoluant progressivement
du 23 à 19 UTC au 23 à 22 UTC
Vent 3 kt de direction variable
Evoluant progressivement
du 24 à 09 UTC au 24 à 12 UTC
Vent 5 kt de nord/nord-ouest

TAF: EDDS 231700Z 2318/2418 35006KT CAVOK BECMG 2319/2322 VRB03KT BECMG 2409/2412 34005KT

Observations et prévisions météorologiques de plus de 4000 aéroports (messages METAR et TAF).

Les stations disponibles sont représentées par des disques jaunes et rouges sur la carte.

Passer la souris dessus pour voir le nom de la station.

Cliquer dessus pour voir les observations et prévisions météorologiques.

Pour changer de carte: cliquez sur les boutons verts avec une croix noire pour zoomer, sur le bouton vert avec un tiret pour effectuer un zoom arrière, ou sur les flèches vertes pour les cartes adjacentes.


METAR-TAF: